sensor_id;sensor_type;location;lat;lon;timestamp;P1;durP1;ratioP1;P2;durP2;ratioP2
60847;SDS011;46681;47.696;9.140;2023-09-08T00:02:25;4.60;;;4.30;;
60847;SDS011;46681;47.696;9.140;2023-09-08T00:04:54;5.70;;;4.43;;
60847;SDS011;46681;47.696;9.140;2023-09-08T00:07:20;4.63;;;4.33;;
60847;SDS011;46681;47.696;9.140;2023-09-08T00:09:48;5.03;;;4.33;;
60847;SDS011;46681;47.696;9.140;2023-09-08T00:12:14;4.23;;;4.03;;
60847;SDS011;46681;47.696;9.140;2023-09-08T00:14:39;4.43;;;4.13;;
60847;SDS011;46681;47.696;9.140;2023-09-08T00:17:05;4.43;;;4.07;;
60847;SDS011;46681;47.696;9.140;2023-09-08T00:19:35;4.80;;;4.30;;
60847;SDS011;46681;47.696;9.140;2023-09-08T00:22:05;5.33;;;4.27;;
60847;SDS011;46681;47.696;9.140;2023-09-08T00:24:34;4.70;;;4.30;;
60847;SDS011;46681;47.696;9.140;2023-09-08T00:27:00;4.57;;;4.27;;
60847;SDS011;46681;47.696;9.140;2023-09-08T00:29:26;4.90;;;4.50;;
60847;SDS011;46681;47.696;9.140;2023-09-08T00:31:52;4.50;;;4.20;;
60847;SDS011;46681;47.696;9.140;2023-09-08T00:34:18;4.90;;;4.30;;
60847;SDS011;46681;47.696;9.140;2023-09-08T00:36:44;4.90;;;4.50;;
60847;SDS011;46681;47.696;9.140;2023-09-08T00:39:10;4.30;;;4.00;;
60847;SDS011;46681;47.696;9.140;2023-09-08T00:41:37;4.80;;;4.50;;
60847;SDS011;46681;47.696;9.140;2023-09-08T00:44:02;4.43;;;4.13;;
60847;SDS011;46681;47.696;9.140;2023-09-08T00:46:32;4.67;;;4.27;;
60847;SDS011;46681;47.696;9.140;2023-09-08T00:49:03;5.53;;;4.53;;
60847;SDS011;46681;47.696;9.140;2023-09-08T00:51:29;4.70;;;4.40;;
60847;SDS011;46681;47.696;9.140;2023-09-08T00:53:59;4.30;;;4.00;;
60847;SDS011;46681;47.696;9.140;2023-09-08T00:56:26;5.23;;;4.77;;
60847;SDS011;46681;47.696;9.140;2023-09-08T00:58:53;4.60;;;4.20;;
60847;SDS011;46681;47.696;9.140;2023-09-08T01:01:21;4.27;;;3.97;;
60847;SDS011;46681;47.696;9.140;2023-09-08T01:03:46;4.83;;;4.43;;
60847;SDS011;46681;47.696;9.140;2023-09-08T01:06:12;4.80;;;4.40;;
60847;SDS011;46681;47.696;9.140;2023-09-08T01:08:38;4.50;;;4.20;;
60847;SDS011;46681;47.696;9.140;2023-09-08T01:11:04;4.67;;;4.20;;
60847;SDS011;46681;47.696;9.140;2023-09-08T01:13:32;5.47;;;5.07;;
60847;SDS011;46681;47.696;9.140;2023-09-08T01:15:59;5.30;;;4.90;;
60847;SDS011;46681;47.696;9.140;2023-09-08T01:18:27;5.53;;;4.67;;
60847;SDS011;46681;47.696;9.140;2023-09-08T01:26:22;4.40;;;4.10;;
60847;SDS011;46681;47.696;9.140;2023-09-08T01:28:53;4.50;;;4.20;;
60847;SDS011;46681;47.696;9.140;2023-09-08T01:31:20;4.97;;;4.57;;
60847;SDS011;46681;47.696;9.140;2023-09-08T01:33:48;4.97;;;4.47;;
60847;SDS011;46681;47.696;9.140;2023-09-08T01:36:14;5.30;;;4.20;;
60847;SDS011;46681;47.696;9.140;2023-09-08T01:38:40;4.47;;;4.07;;
60847;SDS011;46681;47.696;9.140;2023-09-08T01:41:12;4.70;;;4.30;;
60847;SDS011;46681;47.696;9.140;2023-09-08T01:43:37;5.03;;;4.73;;
60847;SDS011;46681;47.696;9.140;2023-09-08T01:46:05;4.67;;;4.30;;
60847;SDS011;46681;47.696;9.140;2023-09-08T01:48:35;5.20;;;4.60;;
60847;SDS011;46681;47.696;9.140;2023-09-08T01:51:00;5.17;;;4.67;;
60847;SDS011;46681;47.696;9.140;2023-09-08T01:53:26;4.50;;;4.20;;
60847;SDS011;46681;47.696;9.140;2023-09-08T01:55:51;4.43;;;4.03;;
60847;SDS011;46681;47.696;9.140;2023-09-08T01:58:17;5.20;;;4.70;;
60847;SDS011;46681;47.696;9.140;2023-09-08T02:00:42;5.17;;;4.67;;
60847;SDS011;46681;47.696;9.140;2023-09-08T02:03:08;4.33;;;4.03;;
60847;SDS011;46681;47.696;9.140;2023-09-08T02:05:34;5.13;;;4.63;;
60847;SDS011;46681;47.696;9.140;2023-09-08T02:07:59;5.13;;;4.73;;
60847;SDS011;46681;47.696;9.140;2023-09-08T02:10:25;4.80;;;4.50;;
60847;SDS011;46681;47.696;9.140;2023-09-08T02:12:50;5.20;;;4.80;;
60847;SDS011;46681;47.696;9.140;2023-09-08T02:15:17;4.60;;;4.20;;
60847;SDS011;46681;47.696;9.140;2023-09-08T02:17:42;4.37;;;4.07;;
60847;SDS011;46681;47.696;9.140;2023-09-08T02:20:08;4.57;;;4.20;;
60847;SDS011;46681;47.696;9.140;2023-09-08T02:22:34;4.60;;;4.30;;
60847;SDS011;46681;47.696;9.140;2023-09-08T02:25:01;5.10;;;4.70;;
60847;SDS011;46681;47.696;9.140;2023-09-08T02:27:26;4.50;;;4.20;;
60847;SDS011;46681;47.696;9.140;2023-09-08T02:29:52;4.60;;;4.30;;
60847;SDS011;46681;47.696;9.140;2023-09-08T02:32:17;4.73;;;4.33;;
60847;SDS011;46681;47.696;9.140;2023-09-08T02:34:43;4.40;;;4.10;;
60847;SDS011;46681;47.696;9.140;2023-09-08T02:37:08;4.57;;;4.17;;
60847;SDS011;46681;47.696;9.140;2023-09-08T02:39:37;4.57;;;4.27;;
60847;SDS011;46681;47.696;9.140;2023-09-08T02:42:09;4.83;;;4.43;;
60847;SDS011;46681;47.696;9.140;2023-09-08T02:44:37;5.00;;;4.60;;
60847;SDS011;46681;47.696;9.140;2023-09-08T02:47:02;5.23;;;4.73;;
60847;SDS011;46681;47.696;9.140;2023-09-08T02:49:28;4.73;;;4.33;;
60847;SDS011;46681;47.696;9.140;2023-09-08T02:51:54;4.70;;;4.40;;
60847;SDS011;46681;47.696;9.140;2023-09-08T02:54:23;4.53;;;4.23;;
60847;SDS011;46681;47.696;9.140;2023-09-08T02:56:49;5.13;;;4.73;;
60847;SDS011;46681;47.696;9.140;2023-09-08T02:59:14;4.60;;;4.30;;
60847;SDS011;46681;47.696;9.140;2023-09-08T03:01:40;4.80;;;4.40;;
60847;SDS011;46681;47.696;9.140;2023-09-08T03:04:06;4.57;;;4.27;;
60847;SDS011;46681;47.696;9.140;2023-09-08T03:06:34;4.43;;;4.07;;
60847;SDS011;46681;47.696;9.140;2023-09-08T03:09:00;4.20;;;3.90;;
60847;SDS011;46681;47.696;9.140;2023-09-08T03:11:26;5.13;;;4.73;;
60847;SDS011;46681;47.696;9.140;2023-09-08T03:13:52;5.03;;;4.57;;
60847;SDS011;46681;47.696;9.140;2023-09-08T03:16:17;5.10;;;4.70;;
60847;SDS011;46681;47.696;9.140;2023-09-08T03:18:43;4.73;;;4.33;;
60847;SDS011;46681;47.696;9.140;2023-09-08T03:21:08;4.87;;;4.50;;
60847;SDS011;46681;47.696;9.140;2023-09-08T03:23:41;5.03;;;4.73;;
60847;SDS011;46681;47.696;9.140;2023-09-08T03:26:08;4.93;;;4.53;;
60847;SDS011;46681;47.696;9.140;2023-09-08T03:28:35;5.60;;;5.10;;
60847;SDS011;46681;47.696;9.140;2023-09-08T03:31:02;4.87;;;4.47;;
60847;SDS011;46681;47.696;9.140;2023-09-08T03:33:28;5.10;;;4.70;;
60847;SDS011;46681;47.696;9.140;2023-09-08T03:35:55;4.67;;;4.37;;
60847;SDS011;46681;47.696;9.140;2023-09-08T03:38:22;5.23;;;4.73;;
60847;SDS011;46681;47.696;9.140;2023-09-08T03:41:00;5.30;;;4.80;;
60847;SDS011;46681;47.696;9.140;2023-09-08T03:43:26;5.10;;;4.63;;
60847;SDS011;46681;47.696;9.140;2023-09-08T03:46:01;5.30;;;4.80;;
60847;SDS011;46681;47.696;9.140;2023-09-08T03:48:29;5.10;;;4.70;;
60847;SDS011;46681;47.696;9.140;2023-09-08T03:50:54;5.33;;;4.97;;
60847;SDS011;46681;47.696;9.140;2023-09-08T03:53:20;5.33;;;4.40;;
60847;SDS011;46681;47.696;9.140;2023-09-08T03:55:46;5.07;;;4.67;;
60847;SDS011;46681;47.696;9.140;2023-09-08T03:58:12;4.97;;;4.57;;
60847;SDS011;46681;47.696;9.140;2023-09-08T04:00:38;5.13;;;4.63;;
60847;SDS011;46681;47.696;9.140;2023-09-08T04:03:04;5.03;;;4.73;;
60847;SDS011;46681;47.696;9.140;2023-09-08T04:05:30;5.20;;;4.80;;
60847;SDS011;46681;47.696;9.140;2023-09-08T04:07:56;4.97;;;4.53;;
60847;SDS011;46681;47.696;9.140;2023-09-08T04:10:24;5.30;;;4.80;;
60847;SDS011;46681;47.696;9.140;2023-09-08T04:12:50;5.03;;;4.63;;
60847;SDS011;46681;47.696;9.140;2023-09-08T04:15:31;4.90;;;4.50;;
60847;SDS011;46681;47.696;9.140;2023-09-08T04:18:02;5.10;;;4.60;;
60847;SDS011;46681;47.696;9.140;2023-09-08T04:20:31;5.00;;;4.70;;
60847;SDS011;46681;47.696;9.140;2023-09-08T04:22:57;4.87;;;4.43;;
60847;SDS011;46681;47.696;9.140;2023-09-08T04:25:34;4.63;;;4.33;;
60847;SDS011;46681;47.696;9.140;2023-09-08T04:28:27;4.80;;;4.40;;
60847;SDS011;46681;47.696;9.140;2023-09-08T04:31:00;5.63;;;5.13;;
60847;SDS011;46681;47.696;9.140;2023-09-08T04:33:26;4.97;;;4.63;;
60847;SDS011;46681;47.696;9.140;2023-09-08T04:36:12;5.23;;;4.83;;
60847;SDS011;46681;47.696;9.140;2023-09-08T04:39:00;4.70;;;4.40;;
60847;SDS011;46681;47.696;9.140;2023-09-08T04:41:33;5.27;;;4.87;;
60847;SDS011;46681;47.696;9.140;2023-09-08T04:44:04;5.37;;;4.97;;
60847;SDS011;46681;47.696;9.140;2023-09-08T04:46:30;5.30;;;4.70;;
60847;SDS011;46681;47.696;9.140;2023-09-08T04:48:58;4.70;;;4.40;;
60847;SDS011;46681;47.696;9.140;2023-09-08T04:51:26;5.10;;;4.70;;
60847;SDS011;46681;47.696;9.140;2023-09-08T04:53:51;4.43;;;4.13;;
60847;SDS011;46681;47.696;9.140;2023-09-08T04:56:18;4.80;;;4.50;;
60847;SDS011;46681;47.696;9.140;2023-09-08T04:58:44;4.50;;;4.20;;
60847;SDS011;46681;47.696;9.140;2023-09-08T05:01:11;5.30;;;4.90;;
60847;SDS011;46681;47.696;9.140;2023-09-08T05:03:42;4.80;;;4.40;;
60847;SDS011;46681;47.696;9.140;2023-09-08T05:06:08;5.53;;;5.03;;
60847;SDS011;46681;47.696;9.140;2023-09-08T05:08:35;4.97;;;4.43;;
60847;SDS011;46681;47.696;9.140;2023-09-08T05:11:00;5.10;;;4.70;;
60847;SDS011;46681;47.696;9.140;2023-09-08T05:13:57;5.00;;;4.70;;
60847;SDS011;46681;47.696;9.140;2023-09-08T05:16:24;5.33;;;4.83;;
60847;SDS011;46681;47.696;9.140;2023-09-08T05:18:51;5.40;;;5.00;;
60847;SDS011;46681;47.696;9.140;2023-09-08T05:21:24;5.33;;;4.93;;
60847;SDS011;46681;47.696;9.140;2023-09-08T05:23:54;5.30;;;4.90;;
60847;SDS011;46681;47.696;9.140;2023-09-08T05:26:22;5.07;;;4.67;;
60847;SDS011;46681;47.696;9.140;2023-09-08T05:28:48;4.83;;;4.53;;
60847;SDS011;46681;47.696;9.140;2023-09-08T05:31:32;5.13;;;4.67;;
60847;SDS011;46681;47.696;9.140;2023-09-08T05:33:57;5.67;;;4.40;;
60847;SDS011;46681;47.696;9.140;2023-09-08T05:36:26;5.07;;;4.67;;
60847;SDS011;46681;47.696;9.140;2023-09-08T05:38:59;5.23;;;4.83;;
60847;SDS011;46681;47.696;9.140;2023-09-08T05:41:36;5.13;;;4.73;;
60847;SDS011;46681;47.696;9.140;2023-09-08T05:44:04;5.20;;;4.80;;
60847;SDS011;46681;47.696;9.140;2023-09-08T05:46:35;5.00;;;4.53;;
60847;SDS011;46681;47.696;9.140;2023-09-08T05:49:08;4.77;;;4.37;;
60847;SDS011;46681;47.696;9.140;2023-09-08T05:51:40;5.03;;;4.63;;
60847;SDS011;46681;47.696;9.140;2023-09-08T05:54:10;5.07;;;4.67;;
60847;SDS011;46681;47.696;9.140;2023-09-08T05:56:36;5.10;;;4.70;;
60847;SDS011;46681;47.696;9.140;2023-09-08T05:59:09;4.53;;;4.23;;
60847;SDS011;46681;47.696;9.140;2023-09-08T06:01:51;4.97;;;4.57;;
60847;SDS011;46681;47.696;9.140;2023-09-08T06:04:25;4.97;;;4.57;;
60847;SDS011;46681;47.696;9.140;2023-09-08T06:06:56;5.13;;;4.73;;
60847;SDS011;46681;47.696;9.140;2023-09-08T06:09:27;4.90;;;4.50;;
60847;SDS011;46681;47.696;9.140;2023-09-08T06:12:11;4.63;;;4.33;;
60847;SDS011;46681;47.696;9.140;2023-09-08T06:14:38;5.20;;;4.70;;
60847;SDS011;46681;47.696;9.140;2023-09-08T06:17:03;4.93;;;4.53;;
60847;SDS011;46681;47.696;9.140;2023-09-08T06:19:30;5.83;;;5.23;;
60847;SDS011;46681;47.696;9.140;2023-09-08T06:22:02;5.50;;;5.00;;
60847;SDS011;46681;47.696;9.140;2023-09-08T06:24:29;5.30;;;4.90;;
60847;SDS011;46681;47.696;9.140;2023-09-08T06:27:06;4.93;;;4.33;;
60847;SDS011;46681;47.696;9.140;2023-09-08T06:29:42;5.30;;;4.57;;
60847;SDS011;46681;47.696;9.140;2023-09-08T06:32:13;6.10;;;4.93;;
60847;SDS011;46681;47.696;9.140;2023-09-08T06:34:44;4.63;;;4.33;;
60847;SDS011;46681;47.696;9.140;2023-09-08T06:37:11;5.40;;;4.90;;
60847;SDS011;46681;47.696;9.140;2023-09-08T06:39:36;5.17;;;4.77;;
60847;SDS011;46681;47.696;9.140;2023-09-08T06:42:02;5.23;;;4.73;;
60847;SDS011;46681;47.696;9.140;2023-09-08T06:44:31;5.27;;;4.87;;
60847;SDS011;46681;47.696;9.140;2023-09-08T06:47:05;5.17;;;4.77;;
60847;SDS011;46681;47.696;9.140;2023-09-08T06:49:37;5.70;;;5.20;;
60847;SDS011;46681;47.696;9.140;2023-09-08T06:52:04;4.93;;;4.63;;
60847;SDS011;46681;47.696;9.140;2023-09-08T06:54:30;4.90;;;4.60;;
60847;SDS011;46681;47.696;9.140;2023-09-08T06:56:56;5.37;;;4.87;;
60847;SDS011;46681;47.696;9.140;2023-09-08T06:59:26;5.60;;;5.20;;
60847;SDS011;46681;47.696;9.140;2023-09-08T07:01:56;5.60;;;5.10;;
60847;SDS011;46681;47.696;9.140;2023-09-08T07:04:25;5.17;;;4.77;;
60847;SDS011;46681;47.696;9.140;2023-09-08T07:06:52;5.77;;;5.27;;
60847;SDS011;46681;47.696;9.140;2023-09-08T07:09:20;5.27;;;4.87;;
60847;SDS011;46681;47.696;9.140;2023-09-08T07:11:48;5.00;;;4.60;;
60847;SDS011;46681;47.696;9.140;2023-09-08T07:14:19;4.73;;;4.33;;
60847;SDS011;46681;47.696;9.140;2023-09-08T07:16:47;5.60;;;5.20;;
60847;SDS011;46681;47.696;9.140;2023-09-08T07:19:37;4.77;;;4.47;;
60847;SDS011;46681;47.696;9.140;2023-09-08T07:22:24;4.63;;;4.23;;
60847;SDS011;46681;47.696;9.140;2023-09-08T07:24:59;4.97;;;4.60;;
60847;SDS011;46681;47.696;9.140;2023-09-08T07:27:26;5.87;;;4.70;;
60847;SDS011;46681;47.696;9.140;2023-09-08T07:29:52;8.60;;;4.63;;
60847;SDS011;46681;47.696;9.140;2023-09-08T07:32:18;9.33;;;5.17;;
60847;SDS011;46681;47.696;9.140;2023-09-08T07:37:44;6.20;;;5.03;;
60847;SDS011;46681;47.696;9.140;2023-09-08T07:40:12;5.03;;;4.53;;
60847;SDS011;46681;47.696;9.140;2023-09-08T07:42:44;5.37;;;4.73;;
60847;SDS011;46681;47.696;9.140;2023-09-08T07:45:16;5.27;;;4.87;;
60847;SDS011;46681;47.696;9.140;2023-09-08T07:47:41;4.63;;;4.23;;
60847;SDS011;46681;47.696;9.140;2023-09-08T07:50:22;4.93;;;4.27;;
60847;SDS011;46681;47.696;9.140;2023-09-08T07:53:12;5.20;;;4.80;;
60847;SDS011;46681;47.696;9.140;2023-09-08T07:55:38;5.20;;;4.80;;
60847;SDS011;46681;47.696;9.140;2023-09-08T07:58:12;5.00;;;4.53;;
60847;SDS011;46681;47.696;9.140;2023-09-08T08:00:37;5.10;;;4.70;;
60847;SDS011;46681;47.696;9.140;2023-09-08T08:03:07;5.03;;;4.60;;
60847;SDS011;46681;47.696;9.140;2023-09-08T08:05:36;6.53;;;5.37;;
60847;SDS011;46681;47.696;9.140;2023-09-08T08:08:31;4.87;;;4.43;;
60847;SDS011;46681;47.696;9.140;2023-09-08T08:11:21;5.30;;;4.80;;
60847;SDS011;46681;47.696;9.140;2023-09-08T08:13:53;6.37;;;4.73;;
60847;SDS011;46681;47.696;9.140;2023-09-08T08:16:25;5.37;;;4.83;;
60847;SDS011;46681;47.696;9.140;2023-09-08T08:18:51;4.90;;;4.50;;
60847;SDS011;46681;47.696;9.140;2023-09-08T08:21:26;5.90;;;5.30;;
60847;SDS011;46681;47.696;9.140;2023-09-08T08:24:05;5.30;;;4.80;;
60847;SDS011;46681;47.696;9.140;2023-09-08T08:26:42;5.97;;;5.37;;
60847;SDS011;46681;47.696;9.140;2023-09-08T08:29:09;6.07;;;4.73;;
60847;SDS011;46681;47.696;9.140;2023-09-08T08:31:41;8.37;;;5.43;;
60847;SDS011;46681;47.696;9.140;2023-09-08T08:34:13;5.40;;;5.00;;
60847;SDS011;46681;47.696;9.140;2023-09-08T08:36:57;6.13;;;5.30;;
60847;SDS011;46681;47.696;9.140;2023-09-08T08:39:22;5.67;;;4.53;;
60847;SDS011;46681;47.696;9.140;2023-09-08T08:45:07;4.57;;;4.17;;
60847;SDS011;46681;47.696;9.140;2023-09-08T08:47:55;4.83;;;4.43;;
60847;SDS011;46681;47.696;9.140;2023-09-08T08:50:46;4.67;;;4.27;;
60847;SDS011;46681;47.696;9.140;2023-09-08T08:53:35;4.37;;;4.07;;
60847;SDS011;46681;47.696;9.140;2023-09-08T08:56:05;4.53;;;4.10;;
60847;SDS011;46681;47.696;9.140;2023-09-08T08:58:42;7.37;;;6.03;;
60847;SDS011;46681;47.696;9.140;2023-09-08T09:01:21;10.60;;;5.50;;
60847;SDS011;46681;47.696;9.140;2023-09-08T09:03:55;6.00;;;4.90;;
60847;SDS011;46681;47.696;9.140;2023-09-08T09:06:38;6.23;;;4.97;;
60847;SDS011;46681;47.696;9.140;2023-09-08T09:09:16;5.40;;;4.30;;
60847;SDS011;46681;47.696;9.140;2023-09-08T09:12:02;5.10;;;4.70;;
60847;SDS011;46681;47.696;9.140;2023-09-08T09:14:31;4.80;;;4.40;;
60847;SDS011;46681;47.696;9.140;2023-09-08T09:17:20;4.70;;;4.33;;
60847;SDS011;46681;47.696;9.140;2023-09-08T09:20:34;6.80;;;4.87;;
60847;SDS011;46681;47.696;9.140;2023-09-08T09:22:55;4.67;;;4.17;;
60847;SDS011;46681;47.696;9.140;2023-09-08T09:25:37;5.07;;;4.57;;
60847;SDS011;46681;47.696;9.140;2023-09-08T09:28:05;6.27;;;4.17;;
60847;SDS011;46681;47.696;9.140;2023-09-08T09:33:43;5.53;;;4.03;;
60847;SDS011;46681;47.696;9.140;2023-09-08T09:36:30;6.53;;;4.67;;
60847;SDS011;46681;47.696;9.140;2023-09-08T09:44:55;4.27;;;3.97;;
60847;SDS011;46681;47.696;9.140;2023-09-08T09:47:21;4.47;;;4.13;;
60847;SDS011;46681;47.696;9.140;2023-09-08T09:50:37;4.47;;;4.07;;
60847;SDS011;46681;47.696;9.140;2023-09-08T09:53:15;5.83;;;4.27;;
60847;SDS011;46681;47.696;9.140;2023-09-08T10:14:20;4.50;;;4.10;;
60847;SDS011;46681;47.696;9.140;2023-09-08T10:26:35;4.03;;;3.73;;
60847;SDS011;46681;47.696;9.140;2023-09-08T10:41:31;14.80;;;7.00;;
60847;SDS011;46681;47.696;9.140;2023-09-08T10:50:32;9.83;;;6.83;;
60847;SDS011;46681;47.696;9.140;2023-09-08T11:09:11;8.33;;;5.80;;
60847;SDS011;46681;47.696;9.140;2023-09-08T11:11:47;9.43;;;6.20;;
60847;SDS011;46681;47.696;9.140;2023-09-08T11:23:30;8.40;;;5.87;;
60847;SDS011;46681;47.696;9.140;2023-09-08T11:26:25;11.67;;;6.07;;
60847;SDS011;46681;47.696;9.140;2023-09-08T11:29:23;6.50;;;5.30;;
60847;SDS011;46681;47.696;9.140;2023-09-08T11:31:53;8.00;;;5.67;;
60847;SDS011;46681;47.696;9.140;2023-09-08T11:38:09;6.93;;;5.10;;
60847;SDS011;46681;47.696;9.140;2023-09-08T11:41:04;6.43;;;5.73;;
60847;SDS011;46681;47.696;9.140;2023-09-08T11:47:23;8.33;;;5.20;;
60847;SDS011;46681;47.696;9.140;2023-09-08T11:50:03;5.37;;;4.53;;
60847;SDS011;46681;47.696;9.140;2023-09-08T11:55:19;6.27;;;4.50;;
60847;SDS011;46681;47.696;9.140;2023-09-08T11:58:21;5.63;;;4.73;;
60847;SDS011;46681;47.696;9.140;2023-09-08T12:07:12;4.87;;;4.27;;
60847;SDS011;46681;47.696;9.140;2023-09-08T12:10:27;5.13;;;4.13;;
60847;SDS011;46681;47.696;9.140;2023-09-08T12:19:04;4.53;;;4.13;;
60847;SDS011;46681;47.696;9.140;2023-09-08T12:24:46;9.33;;;4.00;;
60847;SDS011;46681;47.696;9.140;2023-09-08T12:30:51;7.45;;;4.30;;
60847;SDS011;46681;47.696;9.140;2023-09-08T12:36:36;4.03;;;3.65;;
60847;SDS011;46681;47.696;9.140;2023-09-08T12:39:22;4.75;;;4.30;;
60847;SDS011;46681;47.696;9.140;2023-09-08T12:45:11;4.35;;;3.95;;
60847;SDS011;46681;47.696;9.140;2023-09-08T12:48:04;4.50;;;3.45;;
60847;SDS011;46681;47.696;9.140;2023-09-08T12:51:04;4.25;;;3.85;;
60847;SDS011;46681;47.696;9.140;2023-09-08T12:54:03;4.57;;;4.20;;
60847;SDS011;46681;47.696;9.140;2023-09-08T12:56:37;6.07;;;4.45;;
60847;SDS011;46681;47.696;9.140;2023-09-08T12:59:11;4.60;;;4.20;;
60847;SDS011;46681;47.696;9.140;2023-09-08T13:01:47;5.20;;;4.43;;
60847;SDS011;46681;47.696;9.140;2023-09-08T13:04:15;4.18;;;3.67;;
60847;SDS011;46681;47.696;9.140;2023-09-08T13:06:47;4.35;;;3.95;;
60847;SDS011;46681;47.696;9.140;2023-09-08T13:09:21;3.97;;;3.58;;
60847;SDS011;46681;47.696;9.140;2023-09-08T13:12:00;5.63;;;3.70;;
60847;SDS011;46681;47.696;9.140;2023-09-08T13:14:44;4.13;;;3.70;;
60847;SDS011;46681;47.696;9.140;2023-09-08T13:17:17;4.32;;;3.67;;
60847;SDS011;46681;47.696;9.140;2023-09-08T13:23:16;5.05;;;3.90;;
60847;SDS011;46681;47.696;9.140;2023-09-08T13:26:00;4.15;;;3.50;;
60847;SDS011;46681;47.696;9.140;2023-09-08T13:28:55;3.58;;;3.28;;
60847;SDS011;46681;47.696;9.140;2023-09-08T13:31:30;3.60;;;3.40;;
60847;SDS011;46681;47.696;9.140;2023-09-08T13:33:58;3.65;;;3.40;;
60847;SDS011;46681;47.696;9.140;2023-09-08T13:36:38;4.70;;;3.35;;
60847;SDS011;46681;47.696;9.140;2023-09-08T13:39:15;3.72;;;3.42;;
60847;SDS011;46681;47.696;9.140;2023-09-08T13:50:38;4.32;;;3.65;;
60847;SDS011;46681;47.696;9.140;2023-09-08T13:53:09;3.58;;;3.17;;
60847;SDS011;46681;47.696;9.140;2023-09-08T13:55:43;3.80;;;3.45;;
60847;SDS011;46681;47.696;9.140;2023-09-08T13:58:21;3.90;;;3.20;;
60847;SDS011;46681;47.696;9.140;2023-09-08T14:00:49;3.58;;;3.28;;
60847;SDS011;46681;47.696;9.140;2023-09-08T14:03:30;3.88;;;3.40;;
60847;SDS011;46681;47.696;9.140;2023-09-08T14:06:11;4.18;;;3.78;;
60847;SDS011;46681;47.696;9.140;2023-09-08T14:09:04;3.78;;;3.33;;
60847;SDS011;46681;47.696;9.140;2023-09-08T14:18:07;3.30;;;3.00;;
60847;SDS011;46681;47.696;9.140;2023-09-08T14:23:50;3.17;;;2.97;;
60847;SDS011;46681;47.696;9.140;2023-09-08T14:26:38;3.65;;;2.97;;
60847;SDS011;46681;47.696;9.140;2023-09-08T14:32:17;3.58;;;3.28;;
60847;SDS011;46681;47.696;9.140;2023-09-08T14:34:48;3.40;;;3.20;;
60847;SDS011;46681;47.696;9.140;2023-09-08T14:40:17;10.43;;;3.05;;
60847;SDS011;46681;47.696;9.140;2023-09-08T14:49:02;3.53;;;3.00;;
60847;SDS011;46681;47.696;9.140;2023-09-08T14:51:28;3.30;;;2.90;;
60847;SDS011;46681;47.696;9.140;2023-09-08T14:54:01;4.70;;;3.30;;
60847;SDS011;46681;47.696;9.140;2023-09-08T14:56:39;4.43;;;3.17;;
60847;SDS011;46681;47.696;9.140;2023-09-08T14:59:43;3.45;;;3.15;;
60847;SDS011;46681;47.696;9.140;2023-09-08T15:02:31;3.60;;;3.20;;
60847;SDS011;46681;47.696;9.140;2023-09-08T15:07:52;5.13;;;3.20;;
60847;SDS011;46681;47.696;9.140;2023-09-08T15:13:30;3.67;;;3.37;;
60847;SDS011;46681;47.696;9.140;2023-09-08T15:16:44;3.60;;;3.30;;
60847;SDS011;46681;47.696;9.140;2023-09-08T15:19:09;4.67;;;3.87;;
60847;SDS011;46681;47.696;9.140;2023-09-08T15:22:04;4.47;;;3.60;;
60847;SDS011;46681;47.696;9.140;2023-09-08T15:24:50;4.73;;;3.77;;
60847;SDS011;46681;47.696;9.140;2023-09-08T15:27:40;4.70;;;3.80;;
60847;SDS011;46681;47.696;9.140;2023-09-08T15:30:30;4.53;;;3.60;;
60847;SDS011;46681;47.696;9.140;2023-09-08T15:33:22;4.20;;;3.53;;
60847;SDS011;46681;47.696;9.140;2023-09-08T15:39:01;4.07;;;3.67;;
60847;SDS011;46681;47.696;9.140;2023-09-08T15:44:32;4.20;;;3.90;;
60847;SDS011;46681;47.696;9.140;2023-09-08T15:47:23;4.47;;;4.17;;
60847;SDS011;46681;47.696;9.140;2023-09-08T15:49:54;4.20;;;3.90;;
60847;SDS011;46681;47.696;9.140;2023-09-08T15:52:37;4.03;;;3.63;;
60847;SDS011;46681;47.696;9.140;2023-09-08T15:55:06;4.73;;;4.33;;
60847;SDS011;46681;47.696;9.140;2023-09-08T15:57:33;7.97;;;4.50;;
60847;SDS011;46681;47.696;9.140;2023-09-08T16:00:07;4.17;;;3.77;;
60847;SDS011;46681;47.696;9.140;2023-09-08T16:02:36;4.40;;;4.00;;
60847;SDS011;46681;47.696;9.140;2023-09-08T16:05:03;4.20;;;3.80;;
60847;SDS011;46681;47.696;9.140;2023-09-08T16:07:32;4.27;;;3.87;;
60847;SDS011;46681;47.696;9.140;2023-09-08T16:10:11;3.60;;;3.30;;
60847;SDS011;46681;47.696;9.140;2023-09-08T16:13:07;3.80;;;3.43;;
60847;SDS011;46681;47.696;9.140;2023-09-08T16:15:32;3.60;;;3.30;;
60847;SDS011;46681;47.696;9.140;2023-09-08T16:20:56;4.13;;;3.73;;
60847;SDS011;46681;47.696;9.140;2023-09-08T16:23:34;3.87;;;3.57;;
60847;SDS011;46681;47.696;9.140;2023-09-08T16:29:03;3.87;;;3.50;;
60847;SDS011;46681;47.696;9.140;2023-09-08T16:31:35;4.23;;;3.60;;
60847;SDS011;46681;47.696;9.140;2023-09-08T16:34:19;3.73;;;3.43;;
60847;SDS011;46681;47.696;9.140;2023-09-08T16:37:15;3.47;;;3.27;;
60847;SDS011;46681;47.696;9.140;2023-09-08T16:39:41;5.53;;;3.90;;
60847;SDS011;46681;47.696;9.140;2023-09-08T16:42:19;4.17;;;3.87;;
60847;SDS011;46681;47.696;9.140;2023-09-08T16:44:57;4.90;;;3.97;;
60847;SDS011;46681;47.696;9.140;2023-09-08T16:47:52;4.03;;;3.70;;
60847;SDS011;46681;47.696;9.140;2023-09-08T16:50:21;4.97;;;3.37;;
60847;SDS011;46681;47.696;9.140;2023-09-08T16:58:53;3.93;;;3.53;;
60847;SDS011;46681;47.696;9.140;2023-09-08T17:04:26;8.37;;;4.20;;
60847;SDS011;46681;47.696;9.140;2023-09-08T17:07:05;6.87;;;4.53;;
60847;SDS011;46681;47.696;9.140;2023-09-08T17:12:24;6.93;;;4.53;;
60847;SDS011;46681;47.696;9.140;2023-09-08T17:14:53;4.73;;;3.80;;
60847;SDS011;46681;47.696;9.140;2023-09-08T17:17:24;4.77;;;3.83;;
60847;SDS011;46681;47.696;9.140;2023-09-08T17:20:15;4.30;;;4.00;;
60847;SDS011;46681;47.696;9.140;2023-09-08T17:22:46;4.27;;;3.90;;
60847;SDS011;46681;47.696;9.140;2023-09-08T17:25:13;5.53;;;3.97;;
60847;SDS011;46681;47.696;9.140;2023-09-08T17:27:55;4.63;;;4.33;;
60847;SDS011;46681;47.696;9.140;2023-09-08T17:30:32;4.40;;;3.97;;
60847;SDS011;46681;47.696;9.140;2023-09-08T17:33:09;4.23;;;3.83;;
60847;SDS011;46681;47.696;9.140;2023-09-08T17:35:42;4.37;;;4.07;;
60847;SDS011;46681;47.696;9.140;2023-09-08T17:38:08;6.57;;;4.20;;
60847;SDS011;46681;47.696;9.140;2023-09-08T17:40:35;6.23;;;4.17;;
60847;SDS011;46681;47.696;9.140;2023-09-08T17:43:17;4.07;;;3.77;;
60847;SDS011;46681;47.696;9.140;2023-09-08T17:45:50;4.30;;;4.00;;
60847;SDS011;46681;47.696;9.140;2023-09-08T17:48:24;4.77;;;3.90;;
60847;SDS011;46681;47.696;9.140;2023-09-08T17:51:06;4.50;;;4.20;;
60847;SDS011;46681;47.696;9.140;2023-09-08T17:53:35;5.17;;;4.37;;
60847;SDS011;46681;47.696;9.140;2023-09-08T17:56:01;5.30;;;4.80;;
60847;SDS011;46681;47.696;9.140;2023-09-08T17:58:37;5.00;;;4.60;;
60847;SDS011;46681;47.696;9.140;2023-09-08T18:01:04;5.60;;;5.10;;
60847;SDS011;46681;47.696;9.140;2023-09-08T18:03:31;5.53;;;5.13;;
60847;SDS011;46681;47.696;9.140;2023-09-08T18:05:59;5.03;;;4.50;;
60847;SDS011;46681;47.696;9.140;2023-09-08T18:08:31;5.20;;;4.80;;
60847;SDS011;46681;47.696;9.140;2023-09-08T18:11:01;4.67;;;4.27;;
60847;SDS011;46681;47.696;9.140;2023-09-08T18:13:29;5.13;;;4.73;;
60847;SDS011;46681;47.696;9.140;2023-09-08T18:16:00;5.00;;;4.57;;
60847;SDS011;46681;47.696;9.140;2023-09-08T18:18:34;7.43;;;4.83;;
60847;SDS011;46681;47.696;9.140;2023-09-08T18:21:03;5.77;;;4.53;;
60847;SDS011;46681;47.696;9.140;2023-09-08T18:23:38;4.50;;;4.20;;
60847;SDS011;46681;47.696;9.140;2023-09-08T18:29:12;5.27;;;4.83;;
60847;SDS011;46681;47.696;9.140;2023-09-08T18:31:47;4.63;;;4.30;;
60847;SDS011;46681;47.696;9.140;2023-09-08T18:34:30;5.10;;;4.70;;
60847;SDS011;46681;47.696;9.140;2023-09-08T18:36:58;5.60;;;5.10;;
60847;SDS011;46681;47.696;9.140;2023-09-08T18:39:34;5.77;;;5.27;;